createdAt,value
2023-06-17T00:02:24.054Z,23.39
2023-06-17T00:04:52.320Z,23.37
2023-06-17T00:07:19.387Z,23.36
2023-06-17T00:09:46.324Z,23.33
2023-06-17T00:12:13.537Z,23.31
2023-06-17T00:14:41.904Z,23.31
2023-06-17T00:17:12.184Z,23.35
2023-06-17T00:19:39.943Z,23.38
2023-06-17T00:22:09.636Z,23.40
2023-06-17T00:24:36.955Z,23.41
2023-06-17T00:27:04.592Z,23.44
2023-06-17T00:29:31.508Z,23.44
2023-06-17T00:31:58.557Z,23.44
2023-06-17T00:34:25.546Z,23.44
2023-06-17T00:36:52.448Z,23.45
2023-06-17T00:39:20.672Z,23.47
2023-06-17T00:41:47.641Z,23.49
2023-06-17T00:44:14.558Z,23.52
2023-06-17T00:46:47.712Z,23.53
2023-06-17T00:49:15.211Z,23.52
2023-06-17T00:51:42.882Z,23.50
2023-06-17T00:54:10.284Z,23.51
2023-06-17T00:56:40.484Z,23.48
2023-06-17T00:59:09.214Z,23.45
2023-06-17T01:01:37.437Z,23.43
2023-06-17T01:04:07.773Z,23.45
2023-06-17T01:06:51.679Z,23.41
2023-06-17T01:09:25.813Z,23.41
2023-06-17T01:11:58.469Z,23.39
2023-06-17T01:14:27.417Z,23.40
2023-06-17T01:16:55.632Z,23.38
2023-06-17T01:19:25.926Z,23.35
2023-06-17T01:21:54.541Z,23.37
2023-06-17T01:24:28.380Z,23.38
2023-06-17T01:26:57.716Z,23.40
2023-06-17T01:29:27.222Z,23.42
2023-06-17T01:31:57.783Z,23.44
2023-06-17T01:34:35.386Z,23.41
2023-06-17T01:37:08.719Z,23.42
2023-06-17T01:39:40.630Z,23.39
2023-06-17T01:42:15.050Z,23.33
2023-06-17T01:44:43.554Z,23.29
2023-06-17T01:47:11.403Z,23.28
2023-06-17T01:49:38.780Z,23.29
2023-06-17T01:52:08.172Z,23.28
2023-06-17T01:54:36.430Z,23.27
2023-06-17T01:57:03.844Z,23.28
2023-06-17T01:59:31.548Z,23.27
2023-06-17T02:01:58.536Z,23.28
2023-06-17T02:04:25.742Z,23.27
2023-06-17T02:06:52.843Z,23.22
2023-06-17T02:09:20.100Z,23.16
2023-06-17T02:11:48.333Z,23.15
2023-06-17T02:14:15.309Z,23.15
2023-06-17T02:16:46.510Z,23.15
2023-06-17T02:19:15.671Z,23.14
2023-06-17T02:21:44.057Z,23.10
2023-06-17T02:24:11.768Z,23.05
2023-06-17T02:26:38.778Z,23.02
2023-06-17T02:29:07.104Z,23.03
2023-06-17T02:31:34.351Z,23.04
2023-06-17T02:34:02.960Z,23.08
2023-06-17T02:36:29.945Z,23.08
2023-06-17T02:39:00.943Z,23.08
2023-06-17T02:41:27.844Z,23.05
2023-06-17T02:43:54.821Z,23.00
2023-06-17T02:46:23.895Z,22.98
2023-06-17T02:48:51.030Z,22.94
2023-06-17T02:51:18.100Z,22.90
2023-06-17T02:53:45.025Z,22.87
2023-06-17T02:56:12.019Z,22.85
2023-06-17T02:58:39.978Z,22.84
2023-06-17T03:01:07.044Z,22.86
2023-06-17T03:03:35.672Z,22.88
2023-06-17T03:06:06.480Z,22.92
2023-06-17T03:08:34.961Z,22.97
2023-06-17T03:11:02.063Z,22.98
2023-06-17T03:13:29.551Z,22.99
2023-06-17T03:15:59.797Z,23.01
2023-06-17T03:18:27.415Z,23.06
2023-06-17T03:20:56.043Z,23.10
2023-06-17T03:23:24.215Z,23.11
2023-06-17T03:25:52.791Z,23.15
2023-06-17T03:28:20.035Z,23.21
2023-06-17T03:30:47.570Z,23.24
2023-06-17T03:33:15.126Z,23.29
2023-06-17T03:35:42.166Z,23.29
2023-06-17T03:38:10.729Z,23.28
2023-06-17T03:40:37.806Z,23.27
2023-06-17T03:43:05.035Z,23.26
2023-06-17T03:45:33.828Z,23.29
2023-06-17T03:48:00.930Z,23.29
2023-06-17T03:50:27.849Z,23.29
2023-06-17T03:52:54.737Z,23.26
2023-06-17T03:55:23.618Z,23.25
2023-06-17T03:57:50.784Z,23.24
2023-06-17T04:00:18.734Z,23.25
2023-06-17T04:02:46.514Z,23.27
2023-06-17T04:05:14.406Z,23.25
2023-06-17T04:07:41.435Z,23.23
2023-06-17T04:10:10.467Z,23.23
2023-06-17T04:12:40.008Z,23.21
2023-06-17T04:15:09.102Z,23.21
2023-06-17T04:17:37.540Z,23.21
2023-06-17T04:20:12.005Z,23.19
2023-06-17T04:22:40.998Z,23.20
2023-06-17T04:25:10.763Z,23.24
2023-06-17T04:27:39.857Z,23.26
2023-06-17T04:30:09.815Z,23.27
2023-06-17T04:32:40.091Z,23.29
2023-06-17T04:35:08.373Z,23.32
2023-06-17T04:37:35.563Z,23.30
2023-06-17T04:40:05.847Z,23.28
2023-06-17T04:42:34.778Z,23.27
2023-06-17T04:45:03.778Z,23.24
2023-06-17T04:47:30.764Z,23.22
2023-06-17T04:49:57.848Z,23.24
2023-06-17T04:52:25.681Z,23.30
2023-06-17T04:54:52.809Z,23.37
2023-06-17T04:57:19.945Z,23.42
2023-06-17T04:59:47.037Z,23.43
2023-06-17T05:02:15.611Z,23.43
2023-06-17T05:04:42.563Z,23.42
2023-06-17T05:07:09.515Z,23.42
2023-06-17T05:09:36.412Z,23.40
2023-06-17T05:12:03.708Z,23.38
2023-06-17T05:14:30.707Z,23.37
2023-06-17T05:16:57.743Z,23.40
2023-06-17T05:19:26.031Z,23.43
2023-06-17T05:21:52.980Z,23.45
2023-06-17T05:24:19.963Z,23.45
2023-06-17T05:26:47.131Z,23.48
2023-06-17T05:29:14.068Z,23.58
2023-06-17T05:31:41.052Z,23.66
2023-06-17T05:34:08.025Z,23.70
2023-06-17T05:36:36.314Z,23.74
2023-06-17T05:39:03.419Z,23.75
2023-06-17T05:41:30.423Z,23.75
2023-06-17T05:43:57.327Z,23.73
2023-06-17T05:46:24.347Z,23.74
2023-06-17T05:48:51.303Z,23.76
2023-06-17T05:51:18.327Z,23.82
2023-06-17T05:53:47.147Z,23.88
2023-06-17T05:56:14.166Z,23.92
2023-06-17T05:58:41.098Z,23.96
2023-06-17T06:01:08.060Z,23.99
2023-06-17T06:03:35.024Z,23.96
2023-06-17T06:06:02.011Z,23.95
2023-06-17T06:08:29.024Z,23.96
2023-06-17T06:10:57.280Z,24.03
2023-06-17T06:13:24.278Z,24.09
2023-06-17T06:15:51.370Z,24.15
2023-06-17T06:18:18.362Z,24.20
2023-06-17T06:20:45.297Z,24.23
2023-06-17T06:23:12.497Z,24.26
2023-06-17T06:25:39.456Z,24.27
2023-06-17T06:28:07.817Z,24.36
2023-06-17T06:30:34.764Z,24.41
2023-06-17T06:33:01.785Z,24.47
2023-06-17T06:35:28.757Z,24.49
2023-06-17T06:37:55.715Z,24.52
2023-06-17T06:40:22.889Z,24.50
2023-06-17T06:42:50.048Z,24.47
2023-06-17T06:45:18.735Z,24.49
2023-06-17T06:47:45.756Z,24.49
2023-06-17T06:50:12.805Z,24.48
2023-06-17T06:52:39.815Z,24.45
2023-06-17T06:55:07.668Z,24.45
2023-06-17T06:57:34.647Z,24.49
2023-06-17T07:00:01.808Z,24.54
2023-06-17T07:02:30.648Z,24.59
2023-06-17T07:04:57.773Z,24.66
2023-06-17T07:07:24.782Z,24.75
2023-06-17T07:09:51.697Z,24.81
2023-06-17T07:12:18.690Z,24.85
2023-06-17T07:14:45.665Z,24.88
2023-06-17T07:17:12.649Z,24.88
2023-06-17T07:19:40.960Z,24.83
2023-06-17T07:22:09.035Z,24.84
2023-06-17T07:24:36.079Z,24.84
2023-06-17T07:27:03.668Z,24.88
2023-06-17T07:29:31.185Z,24.88
2023-06-17T07:31:58.160Z,24.86
2023-06-17T07:34:25.971Z,24.85
2023-06-17T07:36:54.243Z,24.86
2023-06-17T07:39:21.337Z,24.86
2023-06-17T07:41:48.336Z,24.83
2023-06-17T07:44:15.430Z,24.79
2023-06-17T07:46:42.432Z,24.74
2023-06-17T07:49:09.482Z,24.72
2023-06-17T07:51:38.123Z,24.77
2023-06-17T07:54:06.683Z,24.81
2023-06-17T07:56:33.645Z,24.86
2023-06-17T07:59:00.579Z,24.94
2023-06-17T08:01:28.133Z,24.98
2023-06-17T08:03:55.449Z,25.02
2023-06-17T08:06:23.552Z,25.09
2023-06-17T08:08:51.251Z,25.14
2023-06-17T08:11:19.976Z,25.30
2023-06-17T08:13:47.262Z,25.43
2023-06-17T08:16:14.307Z,25.57
2023-06-17T08:18:41.605Z,25.68
2023-06-17T08:21:08.587Z,25.75
2023-06-17T08:23:35.699Z,25.77
2023-06-17T08:26:02.633Z,25.82
2023-06-17T08:28:30.868Z,25.83
2023-06-17T08:30:57.758Z,25.89
2023-06-17T08:33:24.679Z,26.06
2023-06-17T08:35:51.671Z,26.21
2023-06-17T08:38:18.585Z,26.36
2023-06-17T08:40:48.736Z,26.50
2023-06-17T08:43:20.916Z,26.66
2023-06-17T08:45:50.629Z,26.75
2023-06-17T08:48:18.499Z,26.78
2023-06-17T08:50:50.052Z,26.82
2023-06-17T08:53:17.970Z,26.79
2023-06-17T08:55:45.618Z,26.77
2023-06-17T08:58:12.816Z,26.80
2023-06-17T09:00:40.123Z,26.81
2023-06-17T09:03:10.173Z,26.80
2023-06-17T09:05:37.327Z,26.77
2023-06-17T09:08:05.164Z,26.79
2023-06-17T09:10:43.697Z,27.52
2023-06-17T09:13:10.994Z,29.00
2023-06-17T09:15:41.347Z,30.07
2023-06-17T09:18:09.895Z,30.25
2023-06-17T09:20:36.889Z,30.13
2023-06-17T09:23:03.920Z,29.92
2023-06-17T09:25:36.355Z,29.67
2023-06-17T09:28:16.131Z,29.79
2023-06-17T09:30:45.218Z,29.94
2023-06-17T09:33:21.565Z,29.77
2023-06-17T09:35:58.649Z,29.53
2023-06-17T09:38:25.684Z,29.86
2023-06-17T09:40:53.784Z,31.22
2023-06-17T09:43:28.322Z,32.91
2023-06-17T09:46:00.416Z,34.22
2023-06-17T09:48:33.867Z,35.12
2023-06-17T09:51:01.685Z,35.59
2023-06-17T09:53:31.246Z,35.29
2023-06-17T09:56:01.098Z,34.68
2023-06-17T09:58:30.396Z,34.62
2023-06-17T10:00:58.913Z,35.46
2023-06-17T10:03:26.828Z,36.58
2023-06-17T10:06:02.298Z,37.87
2023-06-17T10:08:31.998Z,38.81
2023-06-17T10:11:01.334Z,39.05
2023-06-17T10:13:35.608Z,39.46
2023-06-17T10:16:07.228Z,39.11
2023-06-17T10:18:37.967Z,38.99
2023-06-17T10:21:10.015Z,38.28
2023-06-17T10:23:38.709Z,37.68
2023-06-17T10:26:07.121Z,37.76
2023-06-17T10:28:45.691Z,38.60
2023-06-17T10:31:27.419Z,38.71
2023-06-17T10:33:56.085Z,38.15
2023-06-17T10:36:26.893Z,37.43
2023-06-17T10:38:56.739Z,36.69
2023-06-17T10:41:52.178Z,35.75
2023-06-17T10:44:42.327Z,34.63
2023-06-17T10:47:23.597Z,33.95
2023-06-17T10:49:53.515Z,33.46
2023-06-17T10:52:21.946Z,32.97
2023-06-17T10:54:54.088Z,32.53
2023-06-17T10:57:34.297Z,32.16
2023-06-17T11:00:08.011Z,31.99
2023-06-17T11:02:38.490Z,31.86
2023-06-17T11:05:07.627Z,31.79
2023-06-17T11:07:36.457Z,31.59
2023-06-17T11:10:04.491Z,31.37
2023-06-17T11:12:31.650Z,31.27
2023-06-17T11:15:01.134Z,31.13
2023-06-17T11:17:28.636Z,31.01
2023-06-17T11:19:56.227Z,30.94
2023-06-17T11:22:23.941Z,30.91
2023-06-17T11:24:52.272Z,30.88
2023-06-17T11:27:19.444Z,30.81
2023-06-17T11:29:48.553Z,30.77
2023-06-17T11:32:15.644Z,30.76
2023-06-17T11:34:43.243Z,30.87
2023-06-17T11:37:12.377Z,31.06
2023-06-17T11:39:40.280Z,31.17
2023-06-17T11:42:10.405Z,31.21
2023-06-17T11:44:38.421Z,31.10
2023-06-17T11:47:07.683Z,30.98
2023-06-17T11:49:35.581Z,30.91
2023-06-17T11:52:07.123Z,30.73
2023-06-17T11:54:34.155Z,30.64
2023-06-17T11:57:01.357Z,30.57
2023-06-17T11:59:30.983Z,30.49
2023-06-17T12:01:57.974Z,30.43
2023-06-17T12:04:25.217Z,30.39
2023-06-17T12:06:53.904Z,30.38
2023-06-17T12:09:22.256Z,30.36
2023-06-17T12:11:49.347Z,30.33
2023-06-17T12:14:17.009Z,30.36
2023-06-17T12:16:47.870Z,30.40
2023-06-17T12:19:23.071Z,30.45
2023-06-17T12:21:50.780Z,30.46
2023-06-17T12:24:18.649Z,30.46
2023-06-17T12:26:45.744Z,30.51
2023-06-17T12:29:24.164Z,30.62
2023-06-17T12:31:54.769Z,30.93
2023-06-17T12:34:21.760Z,31.12
2023-06-17T12:36:48.881Z,31.20
2023-06-17T12:39:15.859Z,31.05
2023-06-17T12:41:44.451Z,31.04
2023-06-17T12:44:11.536Z,31.10
2023-06-17T12:46:39.194Z,31.13
2023-06-17T12:49:07.593Z,31.17
2023-06-17T12:51:35.346Z,31.25
2023-06-17T12:54:02.260Z,31.32
2023-06-17T12:56:29.164Z,31.39
2023-06-17T12:58:56.117Z,31.40
2023-06-17T13:01:23.298Z,31.44
2023-06-17T13:03:50.274Z,31.48
2023-06-17T13:06:20.248Z,31.50
2023-06-17T13:08:47.165Z,31.54
2023-06-17T13:11:14.059Z,31.56
2023-06-17T13:13:41.023Z,31.61
2023-06-17T13:16:08.928Z,31.65
2023-06-17T13:18:35.913Z,31.69
2023-06-17T13:21:02.784Z,31.77
2023-06-17T13:23:31.373Z,31.84
2023-06-17T13:25:58.339Z,31.90
2023-06-17T13:28:25.326Z,31.89
2023-06-17T13:30:52.883Z,31.84
2023-06-17T13:33:19.768Z,31.84
2023-06-17T13:35:47.067Z,31.81
2023-06-17T13:38:14.104Z,31.78
2023-06-17T13:40:42.353Z,31.84
2023-06-17T13:43:09.420Z,31.94
2023-06-17T13:45:36.354Z,31.97
2023-06-17T13:48:04.640Z,31.91
2023-06-17T13:50:32.188Z,31.65
2023-06-17T13:52:59.808Z,31.61
2023-06-17T13:55:27.159Z,31.66
2023-06-17T13:57:55.430Z,31.81
2023-06-17T14:00:22.795Z,31.96
2023-06-17T14:02:50.130Z,32.04
2023-06-17T14:05:17.706Z,32.11
2023-06-17T14:07:44.717Z,32.06
2023-06-17T14:10:12.673Z,32.13
2023-06-17T14:12:39.609Z,32.16
2023-06-17T14:15:10.876Z,32.25
2023-06-17T14:17:37.922Z,32.32
2023-06-17T14:20:06.424Z,32.42
2023-06-17T14:22:33.560Z,32.53
2023-06-17T14:25:00.490Z,32.59
2023-06-17T14:27:38.653Z,32.56
2023-06-17T14:30:11.155Z,32.56
2023-06-17T14:32:38.700Z,32.59
2023-06-17T14:35:07.365Z,32.60
2023-06-17T14:37:34.506Z,32.60
2023-06-17T14:40:01.425Z,32.58
2023-06-17T14:42:28.673Z,32.54
2023-06-17T14:44:55.650Z,32.53
2023-06-17T14:47:24.458Z,32.60
2023-06-17T14:49:51.471Z,32.90
2023-06-17T14:52:18.761Z,33.25
2023-06-17T14:54:45.840Z,33.44
2023-06-17T14:57:13.455Z,33.45
2023-06-17T14:59:41.049Z,33.41
2023-06-17T15:02:38.382Z,33.56
2023-06-17T15:05:06.438Z,34.20
2023-06-17T15:07:33.365Z,35.17
2023-06-17T15:10:00.276Z,36.02
2023-06-17T15:12:27.228Z,36.61
2023-06-17T15:14:54.607Z,37.13
2023-06-17T15:17:22.032Z,37.45
2023-06-17T15:19:50.384Z,37.53
2023-06-17T15:22:17.324Z,37.44
2023-06-17T15:24:44.258Z,37.13
2023-06-17T15:27:11.236Z,36.64
2023-06-17T15:29:38.260Z,36.17
2023-06-17T15:32:06.493Z,35.72
2023-06-17T15:34:33.505Z,35.28
2023-06-17T15:37:01.968Z,34.92
2023-06-17T15:39:29.572Z,34.54
2023-06-17T15:41:56.520Z,34.16
2023-06-17T15:44:23.731Z,33.90
2023-06-17T15:46:51.354Z,33.68
2023-06-17T15:49:18.766Z,33.51
2023-06-17T15:51:45.796Z,33.38
2023-06-17T15:54:14.399Z,33.34
2023-06-17T15:56:46.865Z,33.29
2023-06-17T15:59:13.922Z,33.30
2023-06-17T16:01:41.054Z,33.49
2023-06-17T16:04:33.227Z,33.68
2023-06-17T16:07:00.978Z,33.81
2023-06-17T16:09:32.597Z,33.98
2023-06-17T16:12:00.773Z,34.16
2023-06-17T16:14:29.520Z,34.34
2023-06-17T16:16:57.124Z,34.49
2023-06-17T16:19:26.390Z,34.60
2023-06-17T16:21:54.404Z,34.73
2023-06-17T16:24:22.025Z,34.80
2023-06-17T16:26:50.627Z,34.83
2023-06-17T16:29:18.230Z,34.87
2023-06-17T16:31:45.925Z,34.86
2023-06-17T16:34:13.523Z,34.84
2023-06-17T16:36:41.030Z,34.72
2023-06-17T16:39:10.068Z,34.65
2023-06-17T16:41:37.627Z,34.56
2023-06-17T16:44:05.902Z,34.52
2023-06-17T16:46:32.883Z,34.41
2023-06-17T16:49:00.201Z,34.24
2023-06-17T16:51:29.609Z,34.08
2023-06-17T16:53:56.882Z,33.91
2023-06-17T16:56:23.941Z,33.73
2023-06-17T16:58:51.402Z,33.65
2023-06-17T17:01:19.736Z,33.57
2023-06-17T17:03:47.058Z,33.49
2023-06-17T17:06:14.343Z,33.39
2023-06-17T17:08:41.310Z,33.23
2023-06-17T17:11:08.562Z,33.06
2023-06-17T17:13:47.955Z,32.90
2023-06-17T17:16:16.251Z,32.67
2023-06-17T17:18:44.602Z,32.54
2023-06-17T17:21:11.802Z,32.47
2023-06-17T17:23:40.509Z,32.41
2023-06-17T17:26:08.106Z,32.33
2023-06-17T17:28:35.056Z,32.27
2023-06-17T17:31:03.409Z,32.25
2023-06-17T17:33:30.581Z,32.19
2023-06-17T17:35:58.959Z,32.15
2023-06-17T17:38:25.960Z,32.09
2023-06-17T17:40:53.116Z,32.03
2023-06-17T17:43:20.270Z,31.96
2023-06-17T17:45:47.223Z,31.92
2023-06-17T17:48:14.284Z,31.87
2023-06-17T17:50:41.186Z,31.82
2023-06-17T17:53:09.846Z,31.75
2023-06-17T17:55:36.823Z,31.67
2023-06-17T17:58:04.010Z,31.63
2023-06-17T18:00:31.020Z,31.58
2023-06-17T18:02:58.007Z,31.55
2023-06-17T18:05:25.028Z,31.44
2023-06-17T18:07:53.713Z,31.36
2023-06-17T18:10:22.746Z,31.27
2023-06-17T18:12:49.926Z,31.21
2023-06-17T18:15:16.964Z,31.15
2023-06-17T18:17:43.959Z,31.04
2023-06-17T18:20:11.650Z,30.95
2023-06-17T18:22:38.722Z,30.86
2023-06-17T18:25:06.922Z,30.73
2023-06-17T18:27:37.016Z,30.63
2023-06-17T18:30:05.924Z,30.52
2023-06-17T18:32:33.581Z,30.41
2023-06-17T18:35:01.032Z,30.32
2023-06-17T18:37:27.984Z,30.25
2023-06-17T18:39:54.886Z,30.18
2023-06-17T18:42:24.106Z,30.10
2023-06-17T18:44:52.446Z,30.04
2023-06-17T18:47:19.379Z,29.99
2023-06-17T18:49:47.162Z,29.94
2023-06-17T18:52:15.527Z,29.90
2023-06-17T18:54:42.458Z,29.86
2023-06-17T18:57:09.354Z,29.83
2023-06-17T18:59:36.328Z,29.78
2023-06-17T19:02:05.528Z,29.73
2023-06-17T19:04:32.491Z,29.69
2023-06-17T19:06:59.470Z,29.64
2023-06-17T19:09:26.661Z,29.59
2023-06-17T19:11:54.508Z,29.52
2023-06-17T19:14:21.480Z,29.45
2023-06-17T19:16:49.950Z,29.37
2023-06-17T19:19:18.356Z,29.33
2023-06-17T19:21:45.370Z,29.26
2023-06-17T19:24:12.312Z,29.23
2023-06-17T19:26:39.634Z,29.15
2023-06-17T19:29:06.606Z,29.10
2023-06-17T19:31:33.586Z,29.03
2023-06-17T19:34:00.634Z,28.97
2023-06-17T19:36:28.901Z,28.92
2023-06-17T19:38:55.851Z,28.83
2023-06-17T19:41:22.784Z,28.76
2023-06-17T19:43:54.575Z,28.70
2023-06-17T19:46:22.954Z,28.65
2023-06-17T19:48:50.095Z,28.58
2023-06-17T19:51:17.239Z,28.52
2023-06-17T19:53:45.563Z,28.46
2023-06-17T19:56:13.147Z,28.41
2023-06-17T19:58:40.329Z,28.36
2023-06-17T20:01:07.538Z,28.31
2023-06-17T20:03:34.708Z,28.27
2023-06-17T20:06:01.853Z,28.20
2023-06-17T20:08:29.091Z,28.15
2023-06-17T20:10:57.434Z,28.12
2023-06-17T20:13:24.452Z,28.06
2023-06-17T20:15:52.509Z,28.01
2023-06-17T20:18:19.496Z,27.96
2023-06-17T20:20:46.626Z,27.91
2023-06-17T20:23:13.673Z,27.88
2023-06-17T20:25:40.695Z,27.84
2023-06-17T20:28:09.024Z,27.83
2023-06-17T20:30:36.210Z,27.78
2023-06-17T20:33:03.421Z,27.73
2023-06-17T20:35:30.376Z,27.67
2023-06-17T20:37:57.794Z,27.60
2023-06-17T20:40:24.720Z,27.53
2023-06-17T20:42:51.709Z,27.48
2023-06-17T20:45:20.068Z,27.48
2023-06-17T20:47:47.044Z,27.46
2023-06-17T20:50:13.992Z,27.43
2023-06-17T20:52:41.106Z,27.39
2023-06-17T20:55:09.434Z,27.32
2023-06-17T20:57:36.420Z,27.28
2023-06-17T21:00:04.016Z,27.22
2023-06-17T21:02:32.356Z,27.16
2023-06-17T21:04:59.323Z,27.12
2023-06-17T21:07:26.284Z,27.10
2023-06-17T21:09:53.714Z,27.05
2023-06-17T21:12:22.077Z,26.97
2023-06-17T21:14:49.100Z,26.87
2023-06-17T21:17:16.360Z,26.79
2023-06-17T21:19:44.877Z,26.72
2023-06-17T21:22:11.829Z,26.63
2023-06-17T21:24:39.018Z,26.55
2023-06-17T21:27:11.794Z,26.46
2023-06-17T21:29:39.478Z,26.39
2023-06-17T21:32:09.455Z,26.31
2023-06-17T21:34:36.694Z,26.24
2023-06-17T21:37:05.978Z,26.17
2023-06-17T21:39:32.955Z,26.11
2023-06-17T21:42:00.229Z,26.06
2023-06-17T21:44:27.283Z,26.01
2023-06-17T21:46:54.263Z,25.96
2023-06-17T21:49:21.441Z,25.91
2023-06-17T21:51:49.861Z,25.86
2023-06-17T21:54:18.192Z,25.80
2023-06-17T21:56:45.105Z,25.74
2023-06-17T21:59:12.083Z,25.70
2023-06-17T22:01:39.204Z,25.66
2023-06-17T22:04:06.591Z,25.61
2023-06-17T22:06:33.685Z,25.55
2023-06-17T22:09:00.659Z,25.50
2023-06-17T22:11:28.891Z,25.46
2023-06-17T22:13:55.875Z,25.43
2023-06-17T22:16:22.900Z,25.42
2023-06-17T22:18:49.932Z,25.41
2023-06-17T22:21:16.972Z,25.40
2023-06-17T22:23:44.060Z,25.37
2023-06-17T22:26:10.957Z,25.37
2023-06-17T22:28:39.331Z,25.39
2023-06-17T22:31:06.325Z,25.40
2023-06-17T22:33:33.322Z,25.39
2023-06-17T22:36:00.619Z,25.34
2023-06-17T22:38:27.522Z,25.32
2023-06-17T22:40:54.517Z,25.27
2023-06-17T22:43:21.494Z,25.28
2023-06-17T22:45:50.039Z,25.26
2023-06-17T22:48:17.117Z,25.24
2023-06-17T22:50:44.063Z,25.22
2023-06-17T22:53:11.057Z,25.20
2023-06-17T22:55:38.098Z,25.20
2023-06-17T22:58:05.074Z,25.22
2023-06-17T23:00:32.289Z,25.21
2023-06-17T23:03:00.714Z,25.22
2023-06-17T23:05:27.876Z,25.22
2023-06-17T23:07:54.814Z,25.19
2023-06-17T23:10:21.953Z,25.18
2023-06-17T23:12:49.178Z,25.20
2023-06-17T23:15:16.254Z,25.21
2023-06-17T23:17:43.348Z,25.19
2023-06-17T23:20:12.455Z,25.19
2023-06-17T23:22:39.402Z,25.21
2023-06-17T23:25:08.641Z,25.23
2023-06-17T23:27:35.658Z,25.23
2023-06-17T23:30:02.756Z,25.24
2023-06-17T23:32:29.913Z,25.26
2023-06-17T23:34:57.389Z,25.26
2023-06-17T23:37:26.510Z,25.24
2023-06-17T23:39:53.653Z,25.22
2023-06-17T23:42:20.627Z,25.20
2023-06-17T23:44:49.213Z,25.17
2023-06-17T23:47:18.059Z,25.14
2023-06-17T23:49:45.886Z,25.11
2023-06-17T23:52:13.347Z,25.09
2023-06-17T23:54:42.038Z,25.08
2023-06-17T23:57:09.184Z,25.09
2023-06-17T23:59:36.387Z,25.08
